createdAt,value
2022-09-13T00:00:29.000Z,18.33
2022-09-13T00:01:29.000Z,18.29
2022-09-13T00:02:29.000Z,18.31
2022-09-13T00:03:30.000Z,18.29
2022-09-13T00:04:28.000Z,18.31
2022-09-13T00:05:29.000Z,18.28
2022-09-13T00:06:28.000Z,18.28
2022-09-13T00:07:28.000Z,18.24
2022-09-13T00:08:28.000Z,18.22
2022-09-13T00:09:28.000Z,18.25
2022-09-13T00:10:31.000Z,18.22
2022-09-13T00:11:29.000Z,18.22
2022-09-13T00:12:28.000Z,18.22
2022-09-13T00:13:29.000Z,18.21
2022-09-13T00:14:29.000Z,18.19
2022-09-13T00:15:29.000Z,18.19
2022-09-13T00:16:29.000Z,18.17
2022-09-13T00:17:29.000Z,18.18
2022-09-13T00:18:29.000Z,18.15
2022-09-13T00:19:28.000Z,18.12
2022-09-13T00:20:28.000Z,18.11
2022-09-13T00:21:28.000Z,18.08
2022-09-13T00:22:29.000Z,18.08
2022-09-13T00:23:29.000Z,18.07
2022-09-13T00:24:28.000Z,18.07
2022-09-13T00:25:28.000Z,18.07
2022-09-13T00:26:28.000Z,18.04
2022-09-13T00:27:31.000Z,18.07
2022-09-13T00:28:29.000Z,18.05
2022-09-13T00:29:29.000Z,18.04
2022-09-13T00:30:29.000Z,18.04
2022-09-13T00:31:28.000Z,18.07
2022-09-13T00:32:29.000Z,18.05
2022-09-13T00:33:29.000Z,18.05
2022-09-13T00:34:29.000Z,18.05
2022-09-13T00:35:29.000Z,18.03
2022-09-13T00:36:29.000Z,18.04
2022-09-13T00:37:29.000Z,18.03
2022-09-13T00:38:29.000Z,18.01
2022-09-13T00:39:29.000Z,18.01
2022-09-13T00:40:29.000Z,18.01
2022-09-13T00:41:29.000Z,18.00
2022-09-13T00:42:31.000Z,18.00
2022-09-13T00:43:39.000Z,18.03
2022-09-13T00:44:39.000Z,17.98
2022-09-13T00:45:29.000Z,17.96
2022-09-13T00:46:40.000Z,17.98
2022-09-13T00:47:38.000Z,17.94
2022-09-13T00:48:32.000Z,17.91
2022-09-13T00:49:34.000Z,17.91
2022-09-13T00:50:35.000Z,17.87
2022-09-13T00:51:30.000Z,17.86
2022-09-13T00:52:32.000Z,17.83
2022-09-13T00:53:32.000Z,17.80
2022-09-13T00:54:38.000Z,17.81
2022-09-13T00:55:35.000Z,17.76
2022-09-13T00:56:36.000Z,17.79
2022-09-13T00:57:32.000Z,17.77
2022-09-13T00:58:38.000Z,17.77
2022-09-13T00:59:37.000Z,17.79
2022-09-13T01:00:29.000Z,17.76
2022-09-13T01:01:36.000Z,17.73
2022-09-13T01:02:29.000Z,17.74
2022-09-13T01:03:33.000Z,17.73
2022-09-13T01:04:32.000Z,17.72
2022-09-13T01:05:35.000Z,17.70
2022-09-13T01:06:32.000Z,17.67
2022-09-13T01:07:29.000Z,17.66
2022-09-13T01:08:32.000Z,17.67
2022-09-13T01:09:31.000Z,17.63
2022-09-13T01:10:32.000Z,17.63
2022-09-13T01:11:39.000Z,17.62
2022-09-13T01:12:42.000Z,17.59
2022-09-13T01:13:33.000Z,17.59
2022-09-13T01:14:31.000Z,17.57
2022-09-13T01:15:29.000Z,17.53
2022-09-13T01:16:29.000Z,17.52
2022-09-13T01:17:31.000Z,17.52
2022-09-13T01:18:29.000Z,17.49
2022-09-13T01:19:29.000Z,17.48
2022-09-13T01:20:46.000Z,17.48
2022-09-13T01:21:48.000Z,17.46
2022-09-13T01:22:39.000Z,17.49
2022-09-13T01:23:58.000Z,17.48
2022-09-13T01:24:39.000Z,17.46
2022-09-13T01:25:52.000Z,17.43
2022-09-13T01:26:47.000Z,17.42
2022-09-13T01:27:38.000Z,17.42
2022-09-13T01:28:39.000Z,17.38
2022-09-13T01:29:49.000Z,17.38
2022-09-13T01:30:49.000Z,17.36
2022-09-13T01:31:44.000Z,17.36
2022-09-13T01:32:46.000Z,17.33
2022-09-13T01:33:38.000Z,17.32
2022-09-13T01:34:52.000Z,17.29
2022-09-13T01:35:39.000Z,17.29
2022-09-13T01:36:43.000Z,17.30
2022-09-13T01:37:44.000Z,17.26
2022-09-13T01:38:42.000Z,17.28
2022-09-13T01:39:51.000Z,17.26
2022-09-13T01:40:44.000Z,17.26
2022-09-13T01:41:52.000Z,17.26
2022-09-13T01:42:39.000Z,17.23
2022-09-13T01:43:50.000Z,17.22
2022-09-13T01:44:42.000Z,17.23
2022-09-13T01:45:39.000Z,17.21
2022-09-13T01:46:39.000Z,17.25
2022-09-13T01:47:39.000Z,17.19
2022-09-13T01:48:49.000Z,17.21
2022-09-13T01:49:45.000Z,17.18
2022-09-13T01:50:39.000Z,17.15
2022-09-13T01:51:34.000Z,17.12
2022-09-13T01:52:38.000Z,17.14
2022-09-13T01:53:39.000Z,17.15
2022-09-13T01:54:38.000Z,17.15
2022-09-13T01:55:40.000Z,17.15
2022-09-13T01:56:39.000Z,17.14
2022-09-13T01:57:34.000Z,17.14
2022-09-13T01:58:38.000Z,17.09
2022-09-13T01:59:55.000Z,17.09
2022-09-13T02:00:42.000Z,17.08
2022-09-13T02:01:38.000Z,17.04
2022-09-13T02:02:40.000Z,17.07
2022-09-13T02:03:36.000Z,17.04
2022-09-13T02:04:37.000Z,17.05
2022-09-13T02:05:52.000Z,17.05
2022-09-13T02:06:33.000Z,17.02
2022-09-13T02:07:35.000Z,17.02
2022-09-13T02:08:43.000Z,17.02
2022-09-13T02:09:33.000Z,17.01
2022-09-13T02:10:33.000Z,17.04
2022-09-13T02:11:31.000Z,17.02
2022-09-13T02:12:33.000Z,16.98
2022-09-13T02:13:34.000Z,16.97
2022-09-13T02:14:37.000Z,16.98
2022-09-13T02:15:35.000Z,16.95
2022-09-13T02:16:38.000Z,16.91
2022-09-13T02:17:35.000Z,16.90
2022-09-13T02:18:35.000Z,16.91
2022-09-13T02:19:50.000Z,16.90
2022-09-13T02:20:33.000Z,16.88
2022-09-13T02:21:34.000Z,16.88
2022-09-13T02:22:37.000Z,16.88
2022-09-13T02:23:41.000Z,16.90
2022-09-13T02:24:38.000Z,16.87
2022-09-13T02:25:32.000Z,16.87
2022-09-13T02:26:32.000Z,16.86
2022-09-13T02:27:32.000Z,16.84
2022-09-13T02:28:35.000Z,16.84
2022-09-13T02:29:31.000Z,16.81
2022-09-13T02:30:31.000Z,16.83
2022-09-13T02:31:37.000Z,16.78
2022-09-13T02:32:34.000Z,16.75
2022-09-13T02:33:36.000Z,16.74
2022-09-13T02:34:38.000Z,16.72
2022-09-13T02:35:53.000Z,16.74
2022-09-13T02:36:33.000Z,16.74
2022-09-13T02:37:31.000Z,16.71
2022-09-13T02:38:40.000Z,16.70
2022-09-13T02:39:30.000Z,16.70
2022-09-13T02:40:34.000Z,16.71
2022-09-13T02:41:43.000Z,16.68
2022-09-13T02:42:37.000Z,16.67
2022-09-13T02:43:40.000Z,16.68
2022-09-13T02:44:35.000Z,16.70
2022-09-13T02:45:36.000Z,16.66
2022-09-13T02:46:51.000Z,16.67
2022-09-13T02:47:54.000Z,16.70
2022-09-13T02:48:40.000Z,16.71
2022-09-13T02:49:40.000Z,16.70
2022-09-13T02:50:44.000Z,16.72
2022-09-13T02:51:41.000Z,16.70
2022-09-13T02:52:50.000Z,16.71
2022-09-13T02:53:40.000Z,16.71
2022-09-13T02:54:41.000Z,16.71
2022-09-13T02:55:51.000Z,16.70
2022-09-13T02:56:42.000Z,16.71
2022-09-13T02:58:03.000Z,16.70
2022-09-13T02:58:44.000Z,16.71
2022-09-13T02:59:29.000Z,16.70
2022-09-13T03:00:29.000Z,16.71
2022-09-13T03:01:29.000Z,16.71
2022-09-13T03:02:33.000Z,16.71
2022-09-13T03:03:28.000Z,16.71
2022-09-13T03:04:29.000Z,16.71
2022-09-13T03:05:30.000Z,16.74
2022-09-13T03:06:28.000Z,16.72
2022-09-13T03:07:29.000Z,16.70
2022-09-13T03:08:29.000Z,16.71
2022-09-13T03:09:30.000Z,16.71
2022-09-13T03:10:41.000Z,16.71
2022-09-13T03:11:52.000Z,16.72
2022-09-13T03:13:04.000Z,16.70
2022-09-13T03:13:41.000Z,16.68
2022-09-13T03:14:38.000Z,16.67
2022-09-13T03:15:49.000Z,16.68
2022-09-13T03:16:43.000Z,16.67
2022-09-13T03:17:54.000Z,16.67
2022-09-13T03:18:44.000Z,16.68
2022-09-13T03:19:46.000Z,16.68
2022-09-13T03:20:42.000Z,16.68
2022-09-13T03:21:54.000Z,16.68
2022-09-13T03:22:53.000Z,16.67
2022-09-13T03:23:48.000Z,16.64
2022-09-13T03:24:39.000Z,16.67
2022-09-13T03:25:38.000Z,16.67
2022-09-13T03:26:44.000Z,16.64
2022-09-13T03:27:39.000Z,16.64
2022-09-13T03:28:40.000Z,16.63
2022-09-13T03:29:40.000Z,16.60
2022-09-13T03:30:32.000Z,16.63
2022-09-13T03:31:38.000Z,16.63
2022-09-13T03:32:49.000Z,16.61
2022-09-13T03:33:42.000Z,16.63
2022-09-13T03:34:38.000Z,16.60
2022-09-13T03:35:39.000Z,16.57
2022-09-13T03:36:37.000Z,16.56
2022-09-13T03:37:43.000Z,16.54
2022-09-13T03:38:37.000Z,16.54
2022-09-13T03:39:39.000Z,16.54
2022-09-13T03:40:51.000Z,16.54
2022-09-13T03:41:35.000Z,16.56
2022-09-13T03:42:44.000Z,16.53
2022-09-13T03:43:44.000Z,16.53
2022-09-13T03:44:31.000Z,16.49
2022-09-13T03:45:34.000Z,16.46
2022-09-13T03:46:36.000Z,16.44
2022-09-13T03:47:32.000Z,16.43
2022-09-13T03:48:31.000Z,16.43
2022-09-13T03:49:30.000Z,16.40
2022-09-13T03:50:30.000Z,16.39
2022-09-13T03:51:29.000Z,16.39
2022-09-13T03:52:29.000Z,16.35
2022-09-13T03:53:32.000Z,16.30
2022-09-13T03:54:31.000Z,16.28
2022-09-13T03:55:31.000Z,16.28
2022-09-13T03:56:29.000Z,16.25
2022-09-13T03:57:28.000Z,16.26
2022-09-13T03:58:28.000Z,16.23
2022-09-13T03:59:29.000Z,16.25
2022-09-13T04:00:28.000Z,16.23
2022-09-13T04:01:29.000Z,16.22
2022-09-13T04:02:28.000Z,16.20
2022-09-13T04:03:28.000Z,16.20
2022-09-13T04:04:28.000Z,16.13
2022-09-13T04:05:28.000Z,16.18
2022-09-13T04:06:28.000Z,16.13
2022-09-13T04:07:29.000Z,16.13
2022-09-13T04:08:29.000Z,16.13
2022-09-13T04:09:29.000Z,16.13
2022-09-13T04:10:31.000Z,16.08
2022-09-13T04:11:28.000Z,16.08
2022-09-13T04:12:29.000Z,16.02
2022-09-13T04:13:28.000Z,16.04
2022-09-13T04:14:29.000Z,16.04
2022-09-13T04:15:30.000Z,16.05
2022-09-13T04:16:28.000Z,16.05
2022-09-13T04:17:28.000Z,16.05
2022-09-13T04:18:29.000Z,16.04
2022-09-13T04:19:30.000Z,16.02
2022-09-13T04:20:28.000Z,15.98
2022-09-13T04:21:30.000Z,15.99
2022-09-13T04:22:28.000Z,16.00
2022-09-13T04:23:29.000Z,15.93
2022-09-13T04:24:29.000Z,15.93
2022-09-13T04:25:29.000Z,15.96
2022-09-13T04:26:28.000Z,15.95
2022-09-13T04:27:28.000Z,15.95
2022-09-13T04:28:29.000Z,15.92
2022-09-13T04:29:30.000Z,15.91
2022-09-13T04:30:29.000Z,15.96
2022-09-13T04:31:28.000Z,15.92
2022-09-13T04:32:28.000Z,15.93
2022-09-13T04:33:30.000Z,15.91
2022-09-13T04:34:28.000Z,15.92
2022-09-13T04:35:28.000Z,15.92
2022-09-13T04:36:28.000Z,15.89
2022-09-13T04:37:28.000Z,15.89
2022-09-13T04:38:30.000Z,15.86
2022-09-13T04:39:28.000Z,15.89
2022-09-13T04:40:28.000Z,15.86
2022-09-13T04:41:29.000Z,15.88
2022-09-13T04:42:28.000Z,15.89
2022-09-13T04:43:28.000Z,15.88
2022-09-13T04:44:29.000Z,15.88
2022-09-13T04:45:28.000Z,15.82
2022-09-13T04:46:28.000Z,15.86
2022-09-13T04:47:29.000Z,15.88
2022-09-13T04:48:28.000Z,15.88
2022-09-13T04:49:28.000Z,15.89
2022-09-13T04:50:28.000Z,15.89
2022-09-13T04:51:28.000Z,15.93
2022-09-13T04:52:29.000Z,15.95
2022-09-13T04:53:31.000Z,15.93
2022-09-13T04:54:28.000Z,15.95
2022-09-13T04:55:29.000Z,15.93
2022-09-13T04:56:28.000Z,15.96
2022-09-13T04:57:29.000Z,15.93
2022-09-13T04:58:30.000Z,15.98
2022-09-13T04:59:28.000Z,15.95
2022-09-13T05:00:29.000Z,15.96
2022-09-13T05:01:28.000Z,16.00
2022-09-13T05:02:28.000Z,16.00
2022-09-13T05:03:30.000Z,16.00
2022-09-13T05:04:28.000Z,16.02
2022-09-13T05:05:30.000Z,16.00
2022-09-13T05:06:29.000Z,16.00
2022-09-13T05:07:28.000Z,16.02
2022-09-13T05:08:28.000Z,16.04
2022-09-13T05:09:28.000Z,16.00
2022-09-13T05:10:28.000Z,16.04
2022-09-13T05:11:28.000Z,16.02
2022-09-13T05:12:28.000Z,16.04
2022-09-13T05:13:29.000Z,16.04
2022-09-13T05:14:28.000Z,15.99
2022-09-13T05:15:28.000Z,15.99
2022-09-13T05:16:31.000Z,15.98
2022-09-13T05:17:28.000Z,15.98
2022-09-13T05:18:33.000Z,15.98
2022-09-13T05:19:28.000Z,15.96
2022-09-13T05:20:29.000Z,15.98
2022-09-13T05:21:29.000Z,15.98
2022-09-13T05:22:28.000Z,15.95
2022-09-13T05:23:30.000Z,15.96
2022-09-13T05:24:28.000Z,15.95
2022-09-13T05:25:28.000Z,15.95
2022-09-13T05:26:29.000Z,15.93
2022-09-13T05:27:28.000Z,15.92
2022-09-13T05:28:30.000Z,15.95
2022-09-13T05:29:28.000Z,15.89
2022-09-13T05:30:28.000Z,15.92
2022-09-13T05:31:31.000Z,15.95
2022-09-13T05:32:30.000Z,15.91
2022-09-13T05:33:32.000Z,15.89
2022-09-13T05:34:28.000Z,15.91
2022-09-13T05:35:28.000Z,15.89
2022-09-13T05:36:29.000Z,15.89
2022-09-13T05:37:28.000Z,15.88
2022-09-13T05:38:30.000Z,15.88
2022-09-13T05:39:28.000Z,15.88
2022-09-13T05:40:28.000Z,15.91
2022-09-13T05:41:28.000Z,15.89
2022-09-13T05:42:28.000Z,15.89
2022-09-13T05:43:31.000Z,15.89
2022-09-13T05:44:28.000Z,15.88
2022-09-13T05:45:28.000Z,15.85
2022-09-13T05:46:28.000Z,15.86
2022-09-13T05:47:28.000Z,15.88
2022-09-13T05:48:30.000Z,15.85
2022-09-13T05:49:28.000Z,15.86
2022-09-13T05:50:28.000Z,15.85
2022-09-13T05:51:28.000Z,15.89
2022-09-13T05:52:28.000Z,15.86
2022-09-13T05:53:29.000Z,15.88
2022-09-13T05:54:28.000Z,15.89
2022-09-13T05:55:29.000Z,15.89
2022-09-13T05:56:29.000Z,15.91
2022-09-13T05:57:35.000Z,15.89
2022-09-13T05:58:28.000Z,15.89
2022-09-13T05:59:28.000Z,15.89
2022-09-13T06:00:30.000Z,15.89
2022-09-13T06:01:28.000Z,15.91
2022-09-13T06:02:29.000Z,15.89
2022-09-13T06:03:29.000Z,15.91
2022-09-13T06:04:29.000Z,15.92
2022-09-13T06:05:29.000Z,15.92
2022-09-13T06:06:29.000Z,15.91
2022-09-13T06:07:29.000Z,15.91
2022-09-13T06:08:30.000Z,15.91
2022-09-13T06:09:29.000Z,15.92
2022-09-13T06:10:29.000Z,15.92
2022-09-13T06:11:29.000Z,15.98
2022-09-13T06:12:40.000Z,16.00
2022-09-13T06:14:03.000Z,15.98
2022-09-13T06:14:29.000Z,15.99
2022-09-13T06:15:29.000Z,16.02
2022-09-13T06:16:29.000Z,16.04
2022-09-13T06:17:29.000Z,16.07
2022-09-13T06:18:29.000Z,16.07
2022-09-13T06:19:29.000Z,16.05
2022-09-13T06:20:29.000Z,16.11
2022-09-13T06:21:29.000Z,16.09
2022-09-13T06:22:32.000Z,16.15
2022-09-13T06:23:30.000Z,16.16
2022-09-13T06:24:29.000Z,16.15
2022-09-13T06:25:29.000Z,16.15
2022-09-13T06:26:29.000Z,16.16
2022-09-13T06:27:29.000Z,16.18
2022-09-13T06:28:29.000Z,16.18
2022-09-13T06:29:29.000Z,16.19
2022-09-13T06:30:29.000Z,16.16
2022-09-13T06:31:29.000Z,16.20
2022-09-13T06:32:29.000Z,16.22
2022-09-13T06:33:29.000Z,16.23
2022-09-13T06:34:28.000Z,16.26
2022-09-13T06:35:28.000Z,16.26
2022-09-13T06:36:29.000Z,16.25
2022-09-13T06:37:28.000Z,16.28
2022-09-13T06:38:29.000Z,16.29
2022-09-13T06:39:30.000Z,16.30
2022-09-13T06:40:28.000Z,16.32
2022-09-13T06:41:28.000Z,16.33
2022-09-13T06:42:28.000Z,16.35
2022-09-13T06:43:29.000Z,16.37
2022-09-13T06:44:29.000Z,16.37
2022-09-13T06:45:28.000Z,16.37
2022-09-13T06:46:30.000Z,16.40
2022-09-13T06:47:29.000Z,16.41
2022-09-13T06:48:33.000Z,16.40
2022-09-13T06:49:30.000Z,16.44
2022-09-13T06:50:28.000Z,16.43
2022-09-13T06:51:29.000Z,16.44
2022-09-13T06:52:28.000Z,16.44
2022-09-13T06:53:30.000Z,16.47
2022-09-13T06:54:28.000Z,16.49
2022-09-13T06:55:29.000Z,16.49
2022-09-13T06:56:35.000Z,16.49
2022-09-13T06:57:29.000Z,16.50
2022-09-13T06:58:30.000Z,16.50
2022-09-13T06:59:28.000Z,16.53
2022-09-13T07:00:28.000Z,16.53
2022-09-13T07:01:42.000Z,16.57
2022-09-13T07:02:28.000Z,16.54
2022-09-13T07:03:28.000Z,16.57
2022-09-13T07:04:30.000Z,16.57
2022-09-13T07:05:28.000Z,16.59
2022-09-13T07:06:32.000Z,16.61
2022-09-13T07:07:29.000Z,16.59
2022-09-13T07:08:29.000Z,16.61
2022-09-13T07:09:28.000Z,16.63
2022-09-13T07:10:28.000Z,16.67
2022-09-13T07:11:34.000Z,16.68
2022-09-13T07:12:28.000Z,16.66
2022-09-13T07:13:28.000Z,16.68
2022-09-13T07:14:28.000Z,16.70
2022-09-13T07:15:28.000Z,16.70
2022-09-13T07:16:30.000Z,16.71
2022-09-13T07:17:28.000Z,16.75
2022-09-13T07:18:28.000Z,16.75
2022-09-13T07:19:29.000Z,16.74
2022-09-13T07:20:28.000Z,16.77
2022-09-13T07:21:28.000Z,16.78
2022-09-13T07:22:28.000Z,16.83
2022-09-13T07:23:30.000Z,16.81
2022-09-13T07:24:28.000Z,16.84
2022-09-13T07:25:28.000Z,16.87
2022-09-13T07:26:28.000Z,16.87
2022-09-13T07:27:28.000Z,16.90
2022-09-13T07:28:34.000Z,16.90
2022-09-13T07:29:28.000Z,16.92
2022-09-13T07:30:28.000Z,16.92
2022-09-13T07:31:31.000Z,16.94
2022-09-13T07:32:30.000Z,16.94
2022-09-13T07:33:28.000Z,16.95
2022-09-13T07:34:28.000Z,16.98
2022-09-13T07:35:28.000Z,17.01
2022-09-13T07:36:30.000Z,17.01
2022-09-13T07:37:29.000Z,17.02
2022-09-13T07:38:29.000Z,17.05
2022-09-13T07:39:29.000Z,17.07
2022-09-13T07:40:29.000Z,17.09
2022-09-13T07:41:30.000Z,17.11
2022-09-13T07:42:29.000Z,17.12
2022-09-13T07:43:29.000Z,17.14
2022-09-13T07:44:29.000Z,17.14
2022-09-13T07:45:29.000Z,17.15
2022-09-13T07:46:32.000Z,17.19
2022-09-13T07:47:31.000Z,17.21
2022-09-13T07:48:32.000Z,17.21
2022-09-13T07:49:29.000Z,17.22
2022-09-13T07:50:29.000Z,17.26
2022-09-13T07:51:31.000Z,17.28
2022-09-13T07:52:29.000Z,17.28
2022-09-13T07:53:29.000Z,17.30
2022-09-13T07:54:29.000Z,17.35
2022-09-13T07:55:30.000Z,17.38
2022-09-13T07:56:33.000Z,17.43
2022-09-13T07:57:29.000Z,17.42
2022-09-13T07:58:29.000Z,17.46
2022-09-13T07:59:29.000Z,17.46
2022-09-13T08:00:29.000Z,17.50
2022-09-13T08:01:34.000Z,17.52
2022-09-13T08:02:29.000Z,17.56
2022-09-13T08:03:29.000Z,17.53
2022-09-13T08:04:29.000Z,17.57
2022-09-13T08:05:29.000Z,17.57
2022-09-13T08:06:30.000Z,17.56
2022-09-13T08:07:29.000Z,17.59
2022-09-13T08:08:30.000Z,17.57
2022-09-13T08:09:28.000Z,17.59
2022-09-13T08:10:28.000Z,17.62
2022-09-13T08:11:36.000Z,17.63
2022-09-13T08:12:28.000Z,17.66
2022-09-13T08:13:29.000Z,17.66
2022-09-13T08:14:28.000Z,17.69
2022-09-13T08:15:28.000Z,17.70
2022-09-13T08:16:29.000Z,17.72
2022-09-13T08:17:28.000Z,17.72
2022-09-13T08:18:29.000Z,17.74
2022-09-13T08:19:28.000Z,17.74
2022-09-13T08:20:28.000Z,17.74
2022-09-13T08:21:37.000Z,17.79
2022-09-13T08:22:28.000Z,17.80
2022-09-13T08:23:29.000Z,17.83
2022-09-13T08:24:28.000Z,17.86
2022-09-13T08:25:32.000Z,17.87
2022-09-13T08:26:31.000Z,17.88
2022-09-13T08:27:28.000Z,17.90
2022-09-13T08:28:30.000Z,17.93
2022-09-13T08:29:28.000Z,17.96
2022-09-13T08:30:33.000Z,17.96
2022-09-13T08:31:29.000Z,17.98
2022-09-13T08:32:29.000Z,17.98
2022-09-13T08:33:29.000Z,18.03
2022-09-13T08:34:28.000Z,18.03
2022-09-13T08:35:29.000Z,18.01
2022-09-13T08:36:28.000Z,18.01
2022-09-13T08:37:29.000Z,18.04
2022-09-13T08:38:28.000Z,18.07
2022-09-13T08:39:28.000Z,18.08
2022-09-13T08:40:38.000Z,18.11
2022-09-13T08:41:38.000Z,18.12
2022-09-13T08:42:43.000Z,18.15
2022-09-13T08:43:38.000Z,18.18
2022-09-13T08:44:33.000Z,18.21
2022-09-13T08:45:28.000Z,18.25
2022-09-13T08:46:39.000Z,18.29
2022-09-13T08:47:38.000Z,18.29
2022-09-13T08:48:34.000Z,18.35
2022-09-13T08:49:33.000Z,18.39
2022-09-13T08:50:32.000Z,18.45
2022-09-13T08:51:41.000Z,18.49
2022-09-13T08:52:33.000Z,18.55
2022-09-13T08:53:29.000Z,18.62
2022-09-13T08:54:28.000Z,18.68
2022-09-13T08:55:49.000Z,18.72
2022-09-13T08:56:42.000Z,18.80
2022-09-13T08:57:43.000Z,18.87
2022-09-13T08:59:01.000Z,18.91
2022-09-13T08:59:38.000Z,18.90
2022-09-13T09:00:37.000Z,18.93
2022-09-13T09:01:51.000Z,18.91
2022-09-13T09:02:38.000Z,18.96
2022-09-13T09:03:48.000Z,18.97
2022-09-13T09:04:35.000Z,18.98
2022-09-13T09:05:30.000Z,19.00
2022-09-13T09:06:28.000Z,19.04
2022-09-13T09:07:32.000Z,19.10
2022-09-13T09:08:40.000Z,19.15
2022-09-13T09:09:32.000Z,19.21
2022-09-13T09:10:38.000Z,19.28
2022-09-13T09:11:40.000Z,19.34
2022-09-13T09:12:38.000Z,19.39
2022-09-13T09:13:46.000Z,19.47
2022-09-13T09:14:39.000Z,19.49
2022-09-13T09:15:46.000Z,19.55
2022-09-13T09:16:37.000Z,19.58
2022-09-13T09:17:41.000Z,19.59
2022-09-13T09:18:35.000Z,19.59
2022-09-13T09:19:40.000Z,19.61
2022-09-13T09:20:41.000Z,19.62
2022-09-13T09:21:31.000Z,19.65
2022-09-13T09:22:32.000Z,19.61
2022-09-13T09:23:38.000Z,19.64
2022-09-13T09:24:35.000Z,19.66
2022-09-13T09:25:30.000Z,19.68
2022-09-13T09:26:29.000Z,19.73
2022-09-13T09:27:29.000Z,19.75
2022-09-13T09:28:30.000Z,19.76
2022-09-13T09:29:31.000Z,19.80
2022-09-13T09:30:39.000Z,19.80
2022-09-13T09:31:38.000Z,19.82
2022-09-13T09:32:39.000Z,19.86
2022-09-13T09:33:38.000Z,19.87
2022-09-13T09:34:39.000Z,19.92
2022-09-13T09:35:38.000Z,19.95
2022-09-13T09:36:38.000Z,19.96
2022-09-13T09:37:29.000Z,20.00
2022-09-13T09:38:39.000Z,20.02
2022-09-13T09:39:31.000Z,20.05
2022-09-13T09:40:31.000Z,20.05
2022-09-13T09:41:31.000Z,20.09
2022-09-13T09:42:33.000Z,20.12
2022-09-13T09:43:34.000Z,20.12
2022-09-13T09:44:30.000Z,20.17
2022-09-13T09:45:36.000Z,20.20
2022-09-13T09:46:32.000Z,20.21
2022-09-13T09:47:40.000Z,20.28
2022-09-13T09:48:37.000Z,20.31
2022-09-13T09:49:44.000Z,20.36
2022-09-13T09:50:33.000Z,20.38
2022-09-13T09:51:30.000Z,20.43
2022-09-13T09:52:35.000Z,20.43
2022-09-13T09:53:36.000Z,20.46
2022-09-13T09:54:29.000Z,20.50
2022-09-13T09:55:35.000Z,20.52
2022-09-13T09:56:32.000Z,20.55
2022-09-13T09:57:38.000Z,20.58
2022-09-13T09:58:38.000Z,20.61
2022-09-13T09:59:31.000Z,20.64
2022-09-13T10:00:48.000Z,20.67
2022-09-13T10:01:36.000Z,20.70
2022-09-13T10:02:28.000Z,20.72
2022-09-13T10:03:31.000Z,20.75
2022-09-13T10:04:29.000Z,20.78
2022-09-13T10:05:33.000Z,20.76
2022-09-13T10:06:30.000Z,20.76
2022-09-13T10:07:32.000Z,20.79
2022-09-13T10:08:31.000Z,20.76
2022-09-13T10:09:29.000Z,20.81
2022-09-13T10:10:40.000Z,20.82
2022-09-13T10:11:51.000Z,20.85
2022-09-13T10:12:32.000Z,20.85
2022-09-13T10:13:30.000Z,20.92
2022-09-13T10:14:39.000Z,20.94
2022-09-13T10:15:33.000Z,20.95
2022-09-13T10:16:30.000Z,20.99
2022-09-13T10:17:29.000Z,21.02
2022-09-13T10:18:31.000Z,21.02
2022-09-13T10:19:28.000Z,20.96
2022-09-13T10:20:29.000Z,20.99
2022-09-13T10:21:29.000Z,21.01
2022-09-13T10:22:31.000Z,21.01
2022-09-13T10:23:30.000Z,21.03
2022-09-13T10:24:29.000Z,21.03
2022-09-13T10:25:30.000Z,21.03
2022-09-13T10:26:32.000Z,21.06
2022-09-13T10:27:34.000Z,21.09
2022-09-13T10:28:32.000Z,21.07
2022-09-13T10:29:30.000Z,21.07
2022-09-13T10:30:39.000Z,21.10
2022-09-13T10:31:33.000Z,21.15
2022-09-13T10:32:29.000Z,21.16
2022-09-13T10:33:32.000Z,21.19
2022-09-13T10:34:34.000Z,21.17
2022-09-13T10:35:29.000Z,21.20
2022-09-13T10:36:32.000Z,21.25
2022-09-13T10:37:30.000Z,21.23
2022-09-13T10:38:32.000Z,21.26
2022-09-13T10:39:34.000Z,21.29
2022-09-13T10:40:30.000Z,21.29
2022-09-13T10:41:34.000Z,21.32
2022-09-13T10:42:29.000Z,21.33
2022-09-13T10:43:30.000Z,21.35
2022-09-13T10:44:34.000Z,21.33
2022-09-13T10:45:29.000Z,21.35
2022-09-13T10:46:30.000Z,21.33
2022-09-13T10:47:37.000Z,21.36
2022-09-13T10:48:29.000Z,21.35
2022-09-13T10:49:43.000Z,21.36
2022-09-13T10:50:29.000Z,21.37
2022-09-13T10:51:34.000Z,21.40
2022-09-13T10:52:39.000Z,21.43
2022-09-13T10:53:34.000Z,21.47
2022-09-13T10:54:28.000Z,21.44
2022-09-13T10:55:34.000Z,21.49
2022-09-13T10:56:28.000Z,21.49
2022-09-13T10:57:34.000Z,21.52
2022-09-13T10:58:28.000Z,21.54
2022-09-13T10:59:28.000Z,21.54
2022-09-13T11:00:40.000Z,21.57
2022-09-13T11:01:38.000Z,21.58
2022-09-13T11:02:48.000Z,21.60
2022-09-13T11:03:38.000Z,21.61
2022-09-13T11:04:38.000Z,21.70
2022-09-13T11:05:34.000Z,21.73
2022-09-13T11:06:46.000Z,21.75
2022-09-13T11:07:45.000Z,21.77
2022-09-13T11:08:43.000Z,21.77
2022-09-13T11:09:38.000Z,21.75
2022-09-13T11:10:49.000Z,21.75
2022-09-13T11:11:40.000Z,21.81
2022-09-13T11:12:51.000Z,21.78
2022-09-13T11:13:50.000Z,21.84
2022-09-13T11:14:47.000Z,21.88
2022-09-13T11:15:38.000Z,21.87
2022-09-13T11:16:50.000Z,21.91
2022-09-13T11:17:51.000Z,21.94
2022-09-13T11:18:53.000Z,21.94
2022-09-13T11:19:51.000Z,21.93
2022-09-13T11:20:38.000Z,21.90
2022-09-13T11:21:44.000Z,21.88
2022-09-13T11:22:39.000Z,21.91
2022-09-13T11:23:44.000Z,21.88
2022-09-13T11:25:02.000Z,21.87
2022-09-13T11:25:45.000Z,21.87
2022-09-13T11:26:52.000Z,21.84
2022-09-13T11:27:49.000Z,21.85
2022-09-13T11:28:49.000Z,21.84
2022-09-13T11:29:40.000Z,21.88
2022-09-13T11:30:40.000Z,21.87
2022-09-13T11:31:40.000Z,21.91
2022-09-13T11:32:42.000Z,21.91
2022-09-13T11:33:40.000Z,21.94
2022-09-13T11:34:54.000Z,22.02
2022-09-13T11:35:38.000Z,21.97
2022-09-13T11:36:43.000Z,21.97
2022-09-13T11:37:42.000Z,22.02
2022-09-13T11:38:36.000Z,22.02
2022-09-13T11:39:36.000Z,22.00
2022-09-13T11:40:38.000Z,22.02
2022-09-13T11:41:42.000Z,22.01
2022-09-13T11:42:43.000Z,22.02
2022-09-13T11:43:39.000Z,22.07
2022-09-13T11:44:46.000Z,22.12
2022-09-13T11:45:48.000Z,22.11
2022-09-13T11:46:42.000Z,22.11
2022-09-13T11:47:59.000Z,22.11
2022-09-13T11:48:38.000Z,22.14
2022-09-13T11:49:48.000Z,22.12
2022-09-13T11:50:49.000Z,22.15
2022-09-13T11:51:38.000Z,22.16
2022-09-13T11:52:48.000Z,22.18
2022-09-13T11:53:38.000Z,22.24
2022-09-13T11:54:48.000Z,22.26
2022-09-13T11:55:36.000Z,22.26
2022-09-13T11:56:35.000Z,22.31
2022-09-13T11:57:34.000Z,22.35
2022-09-13T11:58:36.000Z,22.39
2022-09-13T11:59:40.000Z,22.45
2022-09-13T12:00:36.000Z,22.51
2022-09-13T12:01:39.000Z,22.51
2022-09-13T12:02:40.000Z,22.56
2022-09-13T12:03:38.000Z,22.64
2022-09-13T12:04:48.000Z,22.63
2022-09-13T12:05:37.000Z,22.63
2022-09-13T12:06:38.000Z,22.67
2022-09-13T12:07:43.000Z,22.69
2022-09-13T12:08:36.000Z,22.69
2022-09-13T12:09:35.000Z,22.67
2022-09-13T12:10:35.000Z,22.66
2022-09-13T12:11:35.000Z,22.69
2022-09-13T12:12:32.000Z,22.72
2022-09-13T12:13:40.000Z,22.77
2022-09-13T12:14:40.000Z,22.79
2022-09-13T12:15:35.000Z,22.80
2022-09-13T12:16:36.000Z,22.83
2022-09-13T12:17:35.000Z,22.84
2022-09-13T12:18:34.000Z,22.86
2022-09-13T12:19:51.000Z,22.89
2022-09-13T12:20:36.000Z,22.94
2022-09-13T12:21:34.000Z,22.93
2022-09-13T12:22:32.000Z,22.98
2022-09-13T12:23:33.000Z,23.01
2022-09-13T12:24:46.000Z,23.09
2022-09-13T12:26:05.000Z,23.14
2022-09-13T12:26:38.000Z,23.17
2022-09-13T12:27:37.000Z,23.21
2022-09-13T12:28:38.000Z,23.25
2022-09-13T12:29:38.000Z,23.25
2022-09-13T12:30:39.000Z,23.30
2022-09-13T12:31:30.000Z,23.25
2022-09-13T12:32:29.000Z,23.28
2022-09-13T12:33:28.000Z,23.27
2022-09-13T12:34:39.000Z,23.28
2022-09-13T12:35:34.000Z,23.27
2022-09-13T12:36:38.000Z,23.30
2022-09-13T12:37:54.000Z,23.30
2022-09-13T12:38:48.000Z,23.30
2022-09-13T12:39:42.000Z,23.34
2022-09-13T12:40:38.000Z,23.32
2022-09-13T12:41:44.000Z,23.35
2022-09-13T12:42:44.000Z,23.34
2022-09-13T12:43:45.000Z,23.34
2022-09-13T12:44:44.000Z,23.35
2022-09-13T12:45:38.000Z,23.35
2022-09-13T12:47:04.000Z,23.35
2022-09-13T12:47:54.000Z,23.32
2022-09-13T12:48:55.000Z,23.44
2022-09-13T12:49:51.000Z,23.44
2022-09-13T12:50:57.000Z,23.42
2022-09-13T12:51:51.000Z,23.44
2022-09-13T12:52:42.000Z,23.45